createdAt,value
2018-11-20T00:00:47.369Z,19.37
2018-11-20T00:03:38.867Z,15.20
2018-11-20T00:06:23.772Z,16.13
2018-11-20T00:09:21.036Z,16.43
2018-11-20T00:12:09.311Z,15.97
2018-11-20T00:15:01.088Z,16.00
2018-11-20T00:18:07.974Z,15.80
2018-11-20T00:21:02.986Z,16.03
2018-11-20T00:23:52.012Z,22.07
2018-11-20T00:26:45.519Z,18.50
2018-11-20T00:29:34.417Z,15.17
2018-11-20T00:32:32.131Z,16.57
2018-11-20T00:35:28.976Z,13.57
2018-11-20T00:38:17.278Z,16.53
2018-11-20T00:41:00.400Z,16.20
2018-11-20T00:43:47.314Z,11.40
2018-11-20T00:46:38.560Z,11.23
2018-11-20T00:49:36.731Z,13.73
2018-11-20T00:52:23.547Z,14.93
2018-11-20T00:55:11.993Z,13.23
2018-11-20T00:58:03.351Z,15.17
2018-11-20T01:01:07.000Z,16.87
2018-11-20T01:03:55.892Z,14.53
2018-11-20T01:06:53.118Z,16.27
2018-11-20T01:09:41.027Z,13.87
2018-11-20T01:12:26.835Z,14.57
2018-11-20T01:15:07.414Z,14.90
2018-11-20T01:17:58.706Z,18.03
2018-11-20T01:20:59.022Z,16.23
2018-11-20T01:24:02.468Z,13.90
2018-11-20T01:26:50.911Z,15.47
2018-11-20T01:29:37.868Z,15.13
2018-11-20T01:32:38.421Z,14.10
2018-11-20T01:35:25.607Z,14.80
2018-11-20T01:38:19.663Z,15.87
2018-11-20T01:41:13.924Z,11.50
2018-11-20T01:44:01.483Z,16.57
2018-11-20T01:46:38.986Z,15.57
2018-11-20T01:49:30.491Z,14.73
2018-11-20T01:52:37.119Z,15.20
2018-11-20T01:55:25.792Z,12.13
2018-11-20T01:58:20.312Z,11.37
2018-11-20T02:01:07.465Z,14.27
2018-11-20T02:04:02.333Z,15.90
2018-11-20T02:07:03.422Z,15.40
2018-11-20T02:09:50.649Z,15.17
2018-11-20T02:12:54.338Z,13.90
2018-11-20T02:15:41.167Z,15.70
2018-11-20T02:18:31.142Z,15.27
2018-11-20T02:21:31.464Z,15.37
2018-11-20T02:24:18.313Z,16.07
2018-11-20T02:27:05.227Z,13.83
2018-11-20T02:30:06.086Z,14.20
2018-11-20T02:32:57.947Z,15.17
2018-11-20T02:35:35.805Z,15.57
2018-11-20T02:38:33.243Z,15.90
2018-11-20T02:41:27.073Z,14.40
2018-11-20T02:44:21.454Z,12.83
2018-11-20T02:47:22.868Z,15.73
2018-11-20T02:50:20.848Z,14.57
2018-11-20T02:53:14.366Z,14.33
2018-11-20T02:56:18.074Z,14.10
2018-11-20T02:59:06.976Z,16.27
2018-11-20T03:02:10.470Z,13.67
2018-11-20T03:04:59.463Z,14.17
2018-11-20T03:07:40.295Z,14.03
2018-11-20T03:10:31.803Z,14.50
2018-11-20T03:13:18.891Z,13.97
2018-11-20T03:16:07.502Z,13.40
2018-11-20T03:18:58.481Z,14.10
2018-11-20T03:21:35.780Z,10.13
2018-11-20T03:24:33.349Z,14.77
2018-11-20T03:27:30.506Z,14.00
2018-11-20T03:30:56.181Z,11.63
2018-11-20T03:33:42.841Z,15.20
2018-11-20T03:36:23.900Z,12.50
2018-11-20T03:39:09.706Z,10.87
2018-11-20T03:41:58.260Z,13.03
2018-11-20T03:44:46.574Z,15.20
2018-11-20T03:47:34.077Z,14.47
2018-11-20T03:50:19.074Z,14.20
2018-11-20T03:53:09.706Z,14.13
2018-11-20T03:56:00.342Z,13.67
2018-11-20T03:58:50.269Z,10.80
2018-11-20T04:01:47.673Z,16.17
2018-11-20T04:04:35.329Z,14.73
2018-11-20T04:07:26.855Z,13.97
2018-11-20T04:10:06.419Z,16.00
2018-11-20T04:12:53.347Z,15.17
2018-11-20T04:15:44.369Z,14.33
2018-11-20T04:18:35.496Z,14.30
2018-11-20T04:21:12.875Z,12.77
2018-11-20T04:23:59.999Z,14.13
2018-11-20T04:26:46.141Z,15.97
2018-11-20T04:29:34.870Z,9.10
2018-11-20T04:32:26.229Z,15.57
2018-11-20T04:35:26.224Z,14.40
2018-11-20T04:38:23.081Z,15.57
2018-11-20T04:41:10.464Z,12.00
2018-11-20T04:44:11.073Z,13.23
2018-11-20T04:47:00.934Z,13.93
2018-11-20T04:49:48.530Z,13.53
2018-11-20T04:52:43.597Z,13.13
2018-11-20T04:55:29.409Z,17.30
2018-11-20T04:58:20.517Z,17.33
2018-11-20T05:01:17.465Z,11.70
2018-11-20T05:04:03.660Z,15.87
2018-11-20T05:06:51.075Z,13.07
2018-11-20T05:09:57.846Z,13.73
2018-11-20T05:12:49.766Z,14.83
2018-11-20T05:15:37.152Z,15.13
2018-11-20T05:18:27.451Z,14.63
2018-11-20T05:21:11.069Z,16.93
2018-11-20T05:24:02.505Z,11.77
2018-11-20T05:26:56.603Z,10.27
2018-11-20T05:29:45.078Z,15.20
2018-11-20T05:32:39.630Z,14.17
2018-11-20T05:35:21.191Z,14.90
2018-11-20T05:38:08.360Z,15.37
2018-11-20T05:40:49.774Z,15.53
2018-11-20T05:43:37.295Z,14.87
2018-11-20T05:46:25.908Z,13.60
2018-11-20T05:49:08.612Z,13.77
2018-11-20T05:51:55.773Z,16.07
2018-11-20T05:54:53.035Z,14.93
2018-11-20T05:57:40.317Z,14.57
2018-11-20T06:00:29.317Z,13.10
2018-11-20T06:03:21.470Z,14.13
2018-11-20T06:06:13.729Z,13.00
2018-11-20T06:09:17.029Z,16.73
2018-11-20T06:12:04.191Z,14.63
2018-11-20T06:14:52.082Z,15.27
2018-11-20T06:17:52.621Z,15.60
2018-11-20T06:20:34.452Z,17.47
2018-11-20T06:23:21.407Z,12.27
2018-11-20T06:26:08.996Z,13.13
2018-11-20T06:29:09.337Z,14.60
2018-11-20T06:32:00.585Z,14.77
2018-11-20T06:34:36.520Z,14.97
2018-11-20T06:37:13.752Z,13.70
2018-11-20T06:40:00.630Z,12.97
2018-11-20T06:42:47.750Z,14.93
2018-11-20T06:45:38.921Z,13.80
2018-11-20T06:48:39.093Z,15.13
2018-11-20T06:51:45.640Z,16.20
2018-11-20T06:54:33.050Z,15.93
2018-11-20T06:57:19.862Z,15.47
2018-11-20T07:00:16.725Z,14.47
2018-11-20T07:03:04.270Z,17.73
2018-11-20T07:06:01.227Z,13.43
2018-11-20T07:08:45.182Z,17.40
2018-11-20T07:11:43.886Z,13.80
2018-11-20T07:14:34.704Z,15.70
2018-11-20T07:17:48.860Z,15.53
2018-11-20T07:20:37.477Z,17.67
2018-11-20T07:23:35.330Z,14.67
2018-11-20T07:26:32.809Z,14.60
2018-11-20T07:29:33.235Z,17.50
2018-11-20T07:32:27.591Z,18.40
2018-11-20T07:35:24.984Z,16.90
2018-11-20T07:38:12.025Z,17.67
2018-11-20T07:41:18.269Z,18.77
2018-11-20T07:44:08.003Z,17.13
2018-11-20T07:46:52.201Z,15.63
2018-11-20T07:49:58.964Z,17.50
2018-11-20T07:52:39.141Z,17.70
2018-11-20T07:55:29.024Z,20.37
2018-11-20T07:58:16.775Z,17.80
2018-11-20T08:01:07.691Z,22.50
2018-11-20T08:03:59.539Z,23.10
2018-11-20T08:06:59.767Z,20.03
2018-11-20T08:09:47.219Z,19.33
2018-11-20T08:15:43.003Z,20.90
2018-11-20T08:18:21.422Z,22.37
2018-11-20T08:20:59.104Z,19.97
2018-11-20T08:23:50.145Z,20.57
2018-11-20T08:26:41.257Z,21.03
2018-11-20T08:29:29.962Z,19.27
2018-11-20T08:32:17.260Z,18.10
2018-11-20T08:35:11.896Z,20.77
2018-11-20T08:38:15.720Z,20.17
2018-11-20T08:41:02.454Z,20.43
2018-11-20T08:43:49.904Z,17.97
2018-11-20T08:46:45.942Z,19.43
2018-11-20T08:49:46.293Z,19.97
2018-11-20T08:52:47.423Z,23.30
2018-11-20T08:55:47.889Z,22.20
2018-11-20T08:58:45.098Z,23.10
2018-11-20T09:01:36.015Z,20.77
2018-11-20T09:04:22.830Z,23.57
2018-11-20T09:07:09.976Z,22.30
2018-11-20T09:10:01.455Z,21.07
2018-11-20T09:12:49.846Z,20.77
2018-11-20T09:15:44.672Z,20.77
2018-11-20T09:18:31.924Z,21.50
2018-11-20T09:21:18.044Z,21.90
2018-11-20T09:24:06.233Z,24.33
2018-11-20T09:26:54.869Z,26.93
2018-11-20T09:29:39.631Z,21.73
2018-11-20T09:32:19.636Z,21.67
2018-11-20T09:35:11.302Z,25.23
2018-11-20T09:37:59.635Z,21.33
2018-11-20T09:41:03.657Z,24.97
2018-11-20T09:44:34.134Z,20.33
2018-11-20T09:47:28.570Z,19.60
2018-11-20T09:50:07.156Z,18.93
2018-11-20T09:52:55.899Z,20.93
2018-11-20T09:55:42.668Z,21.63
2018-11-20T09:58:46.129Z,21.43
2018-11-20T10:01:33.780Z,20.23
2018-11-20T10:04:20.761Z,20.43
2018-11-20T10:07:27.337Z,19.60
2018-11-20T10:10:14.759Z,18.17
2018-11-20T10:13:03.379Z,19.43
2018-11-20T10:15:50.437Z,19.70
2018-11-20T10:18:38.172Z,23.00
2018-11-20T10:21:25.436Z,22.37
2018-11-20T10:24:07.572Z,21.43
2018-11-20T10:27:05.072Z,22.73
2018-11-20T10:29:52.102Z,18.73
2018-11-20T10:32:39.692Z,21.67
2018-11-20T10:35:43.617Z,20.73
2018-11-20T10:38:47.888Z,20.73
2018-11-20T10:41:35.668Z,21.83
2018-11-20T10:44:33.189Z,20.27
2018-11-20T10:47:27.278Z,20.27
2018-11-20T10:50:52.321Z,19.00
2018-11-20T10:53:39.563Z,21.97
2018-11-20T10:56:26.691Z,20.57
2018-11-20T10:59:12.982Z,17.87
2018-11-20T11:01:59.503Z,17.77
2018-11-20T11:04:45.430Z,19.77
2018-11-20T11:07:47.988Z,20.40
2018-11-20T11:10:32.611Z,18.50
2018-11-20T11:13:19.146Z,18.07
2018-11-20T11:16:12.513Z,19.10
2018-11-20T11:18:58.761Z,19.03
2018-11-20T11:21:51.842Z,16.83
2018-11-20T11:24:27.921Z,17.80
2018-11-20T11:27:28.058Z,17.33
2018-11-20T11:30:11.692Z,17.93
2018-11-20T11:33:02.426Z,17.43
2018-11-20T11:35:48.673Z,17.27
2018-11-20T11:38:35.260Z,15.40
2018-11-20T11:41:28.940Z,15.13
2018-11-20T11:44:13.913Z,16.47
2018-11-20T11:46:53.930Z,16.63
2018-11-20T11:49:40.957Z,14.43
2018-11-20T11:52:25.320Z,16.80
2018-11-20T11:55:15.813Z,19.30
2018-11-20T11:58:08.729Z,17.60
2018-11-20T12:00:55.369Z,16.23
2018-11-20T12:06:57.544Z,19.00
2018-11-20T12:09:35.464Z,15.60
2018-11-20T12:12:19.200Z,16.80
2018-11-20T12:15:01.287Z,14.77
2018-11-20T12:17:54.525Z,14.97
2018-11-20T12:20:43.406Z,15.10
2018-11-20T12:23:45.622Z,15.03
2018-11-20T12:26:40.468Z,16.23
2018-11-20T12:29:21.916Z,16.70
2018-11-20T12:32:24.496Z,16.27
2018-11-20T12:35:10.770Z,16.23
2018-11-20T12:37:51.870Z,17.70
2018-11-20T12:40:39.201Z,16.40
2018-11-20T12:43:35.668Z,14.00
2018-11-20T12:46:28.169Z,18.17
2018-11-20T12:49:24.762Z,15.00
2018-11-20T12:52:23.877Z,19.87
2018-11-20T12:55:12.840Z,17.07
2018-11-20T12:58:14.005Z,16.80
2018-11-20T13:00:56.222Z,12.80
2018-11-20T13:03:54.929Z,14.00
2018-11-20T13:06:57.361Z,13.90
2018-11-20T13:09:43.617Z,13.30
2018-11-20T13:12:29.618Z,12.93
2018-11-20T13:15:16.625Z,13.67
2018-11-20T13:18:21.293Z,12.83
2018-11-20T13:21:23.669Z,19.77
2018-11-20T13:24:11.733Z,13.17
2018-11-20T13:27:00.551Z,12.97
2018-11-20T13:29:50.565Z,10.93
2018-11-20T13:32:29.444Z,13.90
2018-11-20T13:35:15.718Z,10.67
2018-11-20T13:38:00.698Z,13.00
2018-11-20T13:41:51.913Z,11.70
2018-11-20T13:44:28.056Z,10.43
2018-11-20T13:47:18.567Z,11.73
2018-11-20T13:50:11.911Z,11.27
2018-11-20T13:52:57.822Z,10.53
2018-11-20T13:56:01.367Z,9.87
2018-11-20T13:58:49.160Z,9.20
2018-11-20T14:01:45.917Z,11.43
2018-11-20T14:04:42.666Z,9.37
2018-11-20T14:07:38.846Z,9.97
2018-11-20T14:10:46.616Z,10.20
2018-11-20T14:13:43.060Z,11.10
2018-11-20T14:16:32.971Z,11.73
2018-11-20T14:19:19.073Z,11.07
2018-11-20T14:22:16.143Z,12.77
2018-11-20T14:25:04.307Z,8.93
2018-11-20T14:27:52.465Z,9.53
2018-11-20T14:30:48.631Z,7.43
2018-11-20T14:33:48.314Z,8.77
2018-11-20T14:36:34.334Z,7.77
2018-11-20T14:39:15.131Z,8.50
2018-11-20T14:42:26.717Z,7.77
2018-11-20T14:45:32.565Z,8.90
2018-11-20T14:48:19.467Z,10.13
2018-11-20T14:51:06.929Z,8.37
2018-11-20T14:53:49.512Z,8.33
2018-11-20T14:56:36.674Z,12.10
2018-11-20T14:59:39.149Z,12.77
2018-11-20T15:02:25.538Z,10.03
2018-11-20T15:05:04.698Z,11.23
2018-11-20T15:07:59.019Z,10.17
2018-11-20T15:10:25.964Z,10.20
2018-11-20T15:13:10.106Z,10.00
2018-11-20T15:15:45.926Z,9.67
2018-11-20T15:18:52.205Z,11.60
2018-11-20T15:21:57.840Z,9.57
2018-11-20T15:24:47.767Z,10.23
2018-11-20T15:27:29.428Z,10.17
2018-11-20T15:30:31.976Z,9.33
2018-11-20T15:33:19.245Z,9.90
2018-11-20T15:36:18.383Z,10.73
2018-11-20T15:39:14.732Z,12.50
2018-11-20T15:42:08.032Z,9.90
2018-11-20T15:44:54.367Z,11.47
2018-11-20T15:47:40.869Z,11.67
2018-11-20T15:50:21.930Z,12.93
2018-11-20T15:52:57.024Z,10.20
2018-11-20T15:55:38.828Z,9.43
2018-11-20T15:58:31.517Z,10.60
2018-11-20T16:01:22.881Z,11.00
2018-11-20T16:04:13.326Z,10.30
2018-11-20T16:07:09.127Z,9.47
2018-11-20T16:09:47.035Z,9.73
2018-11-20T16:12:35.328Z,9.13
2018-11-20T16:15:19.833Z,11.70
2018-11-20T16:18:22.410Z,9.50
2018-11-20T16:21:25.620Z,14.80
2018-11-20T16:24:19.009Z,11.10
2018-11-20T16:27:12.125Z,10.77
2018-11-20T16:30:18.456Z,8.77
2018-11-20T16:33:15.115Z,36.60
2018-11-20T16:36:03.140Z,22.37
2018-11-20T16:39:01.028Z,12.37
2018-11-20T16:41:48.788Z,11.37
2018-11-20T16:44:54.321Z,9.87
2018-11-20T16:47:40.193Z,10.57
2018-11-20T16:50:42.671Z,10.07
2018-11-20T16:53:32.826Z,31.40
2018-11-20T16:56:09.095Z,15.60
2018-11-20T16:58:57.554Z,12.03
2018-11-20T17:01:47.477Z,17.73
2018-11-20T17:04:49.882Z,16.77
2018-11-20T17:07:36.675Z,19.40
2018-11-20T17:10:24.066Z,13.93
2018-11-20T17:13:23.590Z,13.20
2018-11-20T17:16:11.751Z,13.43
2018-11-20T17:18:56.651Z,13.33
2018-11-20T17:21:43.227Z,16.70
2018-11-20T17:24:33.864Z,13.80
2018-11-20T17:27:20.383Z,14.07
2018-11-20T17:30:22.727Z,16.17
2018-11-20T17:33:08.830Z,15.93
2018-11-20T17:36:08.193Z,16.27
2018-11-20T17:38:53.954Z,14.63
2018-11-20T17:41:39.784Z,18.60
2018-11-20T17:44:29.960Z,15.17
2018-11-20T17:47:16.187Z,14.47
2018-11-20T17:50:15.596Z,15.73
2018-11-20T17:53:09.289Z,15.90
2018-11-20T17:55:58.434Z,16.03
2018-11-20T17:58:49.892Z,16.20
2018-11-20T18:01:43.656Z,16.90
2018-11-20T18:04:30.865Z,15.70
2018-11-20T18:07:18.018Z,19.97
2018-11-20T18:10:11.028Z,24.07
2018-11-20T18:13:10.348Z,18.77
2018-11-20T18:16:12.910Z,34.03
2018-11-20T18:18:59.223Z,16.57
2018-11-20T18:21:55.840Z,17.17
2018-11-20T18:24:58.850Z,16.43
2018-11-20T18:27:44.959Z,16.30
2018-11-20T18:30:50.531Z,17.73
2018-11-20T18:33:27.100Z,18.80
2018-11-20T18:36:14.225Z,19.90
2018-11-20T18:39:00.190Z,18.40
2018-11-20T18:41:56.396Z,17.10
2018-11-20T18:44:39.148Z,21.80
2018-11-20T18:47:29.209Z,21.30
2018-11-20T18:50:14.973Z,18.60
2018-11-20T18:53:08.591Z,20.93
2018-11-20T18:56:02.167Z,18.20
2018-11-20T18:59:08.848Z,16.47
2018-11-20T19:01:56.344Z,25.37
2018-11-20T19:04:47.067Z,21.97
2018-11-20T19:07:28.704Z,19.50
2018-11-20T19:10:25.747Z,21.93
2018-11-20T19:13:28.409Z,22.23
2018-11-20T19:16:15.154Z,21.80
2018-11-20T19:19:01.066Z,20.10
2018-11-20T19:21:47.081Z,26.00
2018-11-20T19:24:33.313Z,22.27
2018-11-20T19:27:29.602Z,20.30
2018-11-20T19:30:12.445Z,19.70
2018-11-20T19:33:00.261Z,89.73
2018-11-20T19:35:47.126Z,61.60
2018-11-20T19:38:34.702Z,51.57
2018-11-20T19:41:20.893Z,41.77
2018-11-20T19:44:11.748Z,25.57
2018-11-20T19:47:02.109Z,34.40
2018-11-20T19:49:50.706Z,35.43
2018-11-20T19:52:44.275Z,29.50
2018-11-20T19:55:31.717Z,32.53
2018-11-20T19:58:18.834Z,29.00
2018-11-20T20:01:06.371Z,29.23
2018-11-20T20:03:53.032Z,32.70
2018-11-20T20:06:39.333Z,33.50
2018-11-20T20:09:27.661Z,36.10
2018-11-20T20:12:13.880Z,28.20
2018-11-20T20:14:52.248Z,27.93
2018-11-20T20:17:39.744Z,25.37
2018-11-20T20:20:34.629Z,33.37
2018-11-20T20:23:27.616Z,36.57
2018-11-20T20:26:13.428Z,40.63
2018-11-20T20:29:09.697Z,28.67
2018-11-20T20:32:02.724Z,27.90
2018-11-20T20:35:04.949Z,28.17
2018-11-20T20:38:06.215Z,28.93
2018-11-20T20:40:52.696Z,29.07
2018-11-20T20:43:38.408Z,29.60
2018-11-20T20:46:28.996Z,27.57
2018-11-20T20:49:10.523Z,27.57
2018-11-20T20:51:55.387Z,28.90
2018-11-20T20:54:41.791Z,28.70
2018-11-20T20:57:27.628Z,27.80
2018-11-20T21:00:17.594Z,26.60
2018-11-20T21:03:17.518Z,30.13
2018-11-20T21:05:57.355Z,28.90
2018-11-20T21:08:53.760Z,30.57
2018-11-20T21:11:38.666Z,30.00
2018-11-20T21:14:40.718Z,28.30
2018-11-20T21:17:33.952Z,27.83
2018-11-20T21:20:19.418Z,28.03
2018-11-20T21:23:18.432Z,31.07
2018-11-20T21:26:04.471Z,28.10
2018-11-20T21:28:54.572Z,26.60
2018-11-20T21:31:40.293Z,28.43
2018-11-20T21:34:33.949Z,28.20
2018-11-20T21:37:19.393Z,29.00
2018-11-20T21:40:12.349Z,33.47
2018-11-20T21:42:57.827Z,35.60
2018-11-20T21:45:47.860Z,40.23
2018-11-20T21:48:35.624Z,36.20
2018-11-20T21:51:25.521Z,32.50
2018-11-20T21:54:31.609Z,31.03
2018-11-20T21:57:06.791Z,23.83
2018-11-20T21:59:57.403Z,22.30
2018-11-20T22:02:57.589Z,28.40
2018-11-20T22:05:37.369Z,27.03
2018-11-20T22:08:30.409Z,29.97
2018-11-20T22:11:23.746Z,33.80
2018-11-20T22:14:04.828Z,30.57
2018-11-20T22:16:56.928Z,30.97
2018-11-20T22:19:56.936Z,36.20
2018-11-20T22:23:02.403Z,29.20
2018-11-20T22:25:47.072Z,30.40
2018-11-20T22:28:30.759Z,32.47
2018-11-20T22:31:20.549Z,33.93
2018-11-20T22:34:13.321Z,34.00
2018-11-20T22:37:00.636Z,29.77
2018-11-20T22:40:06.087Z,24.27
2018-11-20T22:43:09.360Z,29.57
2018-11-20T22:45:55.512Z,26.80
2018-11-20T22:48:48.059Z,25.63
2018-11-20T22:51:31.003Z,25.33
2018-11-20T22:54:21.511Z,24.13
2018-11-20T22:57:17.457Z,26.90
2018-11-20T23:00:03.048Z,26.07
2018-11-20T23:03:02.694Z,27.30
2018-11-20T23:05:47.280Z,29.33
2018-11-20T23:08:14.598Z,35.90
2018-11-20T23:10:43.541Z,30.50
2018-11-20T23:13:11.176Z,38.27
2018-11-20T23:15:38.800Z,32.77
2018-11-20T23:18:06.742Z,30.33
2018-11-20T23:20:34.873Z,27.90
2018-11-20T23:23:02.639Z,24.87
2018-11-20T23:25:30.699Z,23.33
2018-11-20T23:27:58.320Z,23.20
2018-11-20T23:30:26.387Z,24.13
2018-11-20T23:32:54.387Z,25.73
2018-11-20T23:35:22.856Z,28.93
2018-11-20T23:37:50.610Z,28.13
2018-11-20T23:40:18.281Z,29.60
2018-11-20T23:42:45.738Z,25.67
2018-11-20T23:45:14.100Z,27.40
2018-11-20T23:47:42.119Z,26.87
2018-11-20T23:50:10.888Z,27.07
2018-11-20T23:52:38.311Z,25.80
2018-11-20T23:55:08.638Z,25.20
2018-11-20T23:57:36.504Z,25.00
